»·PEaware :: N969DA KSNA-KCRQ

N969DA :: KSNA-KCRQ

FLIGHT INFORMATION

Flight Status: Arrived
Operator: Privately registered:
United States
More flights under this callsign
Pilot: Anonymous 20880 (20880)
Aircraft: Unknown
(DA62)
More flights by this aircraft type
Origin: KSNA John Wayne-Orange Co
United States
Destination: KCRQ McClellan-Palomar
United States
More flights between these airports :: More routes between these airports
Route: V23 OCN
File this flight plan on PilotEdge
Remarks: I-2 rating
Altitude:
(Current/Filed)
5,000ft
Speed:
(Current/Filed)
140kts
Departed: 13-Dec-18 09:49 PM
Arrived: 13-Dec-18 10:20 PM
Distance/Time
Traveled:
44nm/0:31
Distance/Time
To Go:
Arrived

Flight Plot

Page will automatically refresh every two minutes.


Map Options




Map Legend


Flown Route
Filed Route
Departure Airport
Arrival Airport
Navaid (VOR, NDB)
Fix

Horizontal Profiles

Position Reports

Time Latitude Longitude Heading Altitude Ground
Speed
13-Dec-18 21:19 33.675827 -117.871065 220 60ft 0kts
13-Dec-18 21:20 33.675827 -117.871065 220 60ft 0kts
13-Dec-18 21:21 33.675827 -117.871065 220 60ft 0kts
13-Dec-18 21:22 33.675827 -117.871065 220 60ft 0kts
13-Dec-18 21:23 33.675827 -117.871065 220 60ft 0kts
13-Dec-18 21:24 33.675827 -117.871065 220 60ft 0kts
13-Dec-18 21:25 33.675827 -117.871065 220 60ft 0kts
13-Dec-18 21:26 33.675827 -117.871065 220 60ft 0kts
13-Dec-18 21:27 33.675827 -117.871065 220 60ft 0kts
13-Dec-18 21:28 33.675827 -117.871065 220 60ft 0kts
13-Dec-18 21:29 33.675827 -117.871065 220 60ft 0kts
13-Dec-18 21:30 33.675827 -117.871065 220 60ft 0kts
13-Dec-18 21:31 33.675827 -117.871065 220 60ft 0kts
13-Dec-18 21:32 33.675827 -117.871065 220 60ft 0kts
13-Dec-18 21:33 33.675827 -117.871065 220 60ft 0kts
13-Dec-18 21:34 33.675827 -117.871065 220 60ft 0kts
13-Dec-18 21:35 33.675827 -117.871065 220 60ft 0kts
13-Dec-18 21:36 33.675827 -117.871065 220 60ft 0kts
13-Dec-18 21:37 33.675827 -117.871065 220 60ft 0kts
13-Dec-18 21:38 33.675827 -117.871065 220 60ft 0kts
13-Dec-18 21:39 33.675827 -117.871065 220 60ft 0kts
13-Dec-18 21:40 33.675827 -117.871065 220 60ft 0kts
13-Dec-18 21:41 33.675827 -117.871065 220 60ft 0kts
13-Dec-18 21:42 33.675827 -117.871065 220 60ft 0kts
13-Dec-18 21:43 33.675823 -117.871068 220 60ft 1kts
13-Dec-18 21:44 33.677833 -117.868978 27 60ft 17kts
13-Dec-18 21:45 33.680864 -117.867236 27 60ft 8kts
13-Dec-18 21:46 33.681282 -117.866586 109 60ft 0kts
13-Dec-18 21:47 33.681282 -117.866586 109 60ft 0kts
13-Dec-18 21:48 33.679071 -117.866635 207 60ft 58kts
13-Dec-18 21:49 33.652990 -117.875693 185 869ft 115kts
13-Dec-18 21:50 33.620787 -117.876642 179 2112ft 115kts
13-Dec-18 21:51 33.595999 -117.860507 123 2878ft 129kts
13-Dec-18 21:52 33.574092 -117.826496 123 3652ft 131kts
13-Dec-18 21:53 33.550150 -117.793852 134 4443ft 131kts
13-Dec-18 21:54 33.523482 -117.761594 134 4800ft 148kts
13-Dec-18 21:55 33.494935 -117.727779 132 4681ft 140kts
13-Dec-18 21:56 33.467339 -117.693521 133 4686ft 145kts
13-Dec-18 21:57 33.438913 -117.658578 133 4687ft 147kts
13-Dec-18 21:58 33.410441 -117.623738 133 4751ft 145kts
13-Dec-18 21:59 33.381896 -117.588863 133 4752ft 147kts
13-Dec-18 22:00 33.353161 -117.553812 133 4752ft 148kts
13-Dec-18 22:01 33.324281 -117.518592 133 4753ft 148kts
13-Dec-18 22:02 33.295432 -117.483485 133 4752ft 148kts
13-Dec-18 22:03 33.266533 -117.448376 133 4752ft 148kts
13-Dec-18 22:04 33.238085 -117.412934 117 4743ft 148kts
13-Dec-18 22:05 33.235203 -117.364688 91 4749ft 141kts
13-Dec-18 22:06 33.234124 -117.319204 91 4752ft 136kts
13-Dec-18 22:07 33.233068 -117.274361 91 4752ft 134kts
13-Dec-18 22:08 33.232035 -117.230888 91 4186ft 127kts
13-Dec-18 22:09 33.230991 -117.185050 91 3753ft 144kts
13-Dec-18 22:10 33.229915 -117.137615 91 3752ft 142kts
13-Dec-18 22:11 33.228867 -117.091114 91 3752ft 141kts
13-Dec-18 22:12 33.227240 -117.044154 109 3740ft 142kts
13-Dec-18 22:13 33.192256 -117.032233 209 3748ft 141kts
13-Dec-18 22:14 33.162402 -117.063403 239 3573ft 150kts
13-Dec-18 22:15 33.155907 -117.112812 259 3251ft 146kts
13-Dec-18 22:16 33.147128 -117.162852 258 2314ft 157kts
13-Dec-18 22:17 33.138798 -117.214670 259 1378ft 159kts
13-Dec-18 22:18 33.131803 -117.257195 255 614ft 100kts
13-Dec-18 22:19 33.127565 -117.279762 150 309ft 0kts
13-Dec-18 22:20 33.126766 -117.280566 55 310ft 0kts
13-Dec-18 22:23 33.126766 -117.280566 55 310ft 0kts
13-Dec-18 22:23 33.126766 -117.280566 55 310ft 0kts
13-Dec-18 22:23 33.126766 -117.280566 55 310ft 0kts
13-Dec-18 22:24 33.126766 -117.280566 55 310ft 0kts
13-Dec-18 22:25 33.126766 -117.280566 55 310ft 0kts
13-Dec-18 22:28 33.126766 -117.280566 55 310ft 0kts

Navigation Log

Ident Type
Flight plan parsing failed, navigation log unavailable